sensor_id;sensor_type;location;lat;lon;timestamp;P1;durP1;ratioP1;P2;durP2;ratioP2
36597;SDS011;22607;49.550;11.940;2024-01-30T00:02:17;12.30;;;5.95;;
36597;SDS011;22607;49.550;11.940;2024-01-30T00:04:46;14.18;;;5.85;;
36597;SDS011;22607;49.550;11.940;2024-01-30T00:07:13;12.60;;;4.80;;
36597;SDS011;22607;49.550;11.940;2024-01-30T00:09:39;12.30;;;4.90;;
36597;SDS011;22607;49.550;11.940;2024-01-30T00:12:06;14.18;;;4.85;;
36597;SDS011;22607;49.550;11.940;2024-01-30T00:14:33;14.10;;;5.35;;
36597;SDS011;22607;49.550;11.940;2024-01-30T00:16:59;13.93;;;5.70;;
36597;SDS011;22607;49.550;11.940;2024-01-30T00:19:26;13.95;;;5.32;;
36597;SDS011;22607;49.550;11.940;2024-01-30T00:21:57;11.52;;;4.95;;
36597;SDS011;22607;49.550;11.940;2024-01-30T00:24:25;14.20;;;5.57;;
36597;SDS011;22607;49.550;11.940;2024-01-30T00:26:52;14.40;;;5.22;;
36597;SDS011;22607;49.550;11.940;2024-01-30T00:29:19;12.07;;;5.25;;
36597;SDS011;22607;49.550;11.940;2024-01-30T00:31:46;10.65;;;4.43;;
36597;SDS011;22607;49.550;11.940;2024-01-30T00:34:12;10.73;;;4.65;;
36597;SDS011;22607;49.550;11.940;2024-01-30T00:36:39;12.18;;;5.25;;
36597;SDS011;22607;49.550;11.940;2024-01-30T00:39:11;14.43;;;5.85;;
36597;SDS011;22607;49.550;11.940;2024-01-30T00:41:38;13.32;;;4.78;;
36597;SDS011;22607;49.550;11.940;2024-01-30T00:44:05;14.95;;;5.72;;
36597;SDS011;22607;49.550;11.940;2024-01-30T00:46:32;11.85;;;4.90;;
36597;SDS011;22607;49.550;11.940;2024-01-30T00:49:00;11.45;;;4.80;;
36597;SDS011;22607;49.550;11.940;2024-01-30T00:51:27;13.07;;;5.57;;
36597;SDS011;22607;49.550;11.940;2024-01-30T00:53:56;13.65;;;5.28;;
36597;SDS011;22607;49.550;11.940;2024-01-30T00:56:22;13.90;;;5.15;;
36597;SDS011;22607;49.550;11.940;2024-01-30T00:58:50;13.30;;;5.60;;
36597;SDS011;22607;49.550;11.940;2024-01-30T01:01:18;12.45;;;4.72;;
36597;SDS011;22607;49.550;11.940;2024-01-30T01:03:45;12.07;;;4.40;;
36597;SDS011;22607;49.550;11.940;2024-01-30T01:06:12;12.63;;;5.80;;
36597;SDS011;22607;49.550;11.940;2024-01-30T01:08:39;13.23;;;5.07;;
36597;SDS011;22607;49.550;11.940;2024-01-30T01:11:05;12.32;;;5.60;;
36597;SDS011;22607;49.550;11.940;2024-01-30T01:13:32;11.43;;;5.18;;
36597;SDS011;22607;49.550;11.940;2024-01-30T01:15:58;12.13;;;5.20;;
36597;SDS011;22607;49.550;11.940;2024-01-30T01:18:25;13.90;;;5.63;;
36597;SDS011;22607;49.550;11.940;2024-01-30T01:20:52;13.25;;;4.90;;
36597;SDS011;22607;49.550;11.940;2024-01-30T01:23:24;11.98;;;4.50;;
36597;SDS011;22607;49.550;11.940;2024-01-30T01:25:51;13.30;;;5.20;;
36597;SDS011;22607;49.550;11.940;2024-01-30T01:28:17;12.45;;;5.40;;
36597;SDS011;22607;49.550;11.940;2024-01-30T01:30:45;11.15;;;4.95;;
36597;SDS011;22607;49.550;11.940;2024-01-30T01:33:12;13.88;;;4.95;;
36597;SDS011;22607;49.550;11.940;2024-01-30T01:35:41;13.65;;;5.50;;
36597;SDS011;22607;49.550;11.940;2024-01-30T01:38:08;13.48;;;5.43;;
36597;SDS011;22607;49.550;11.940;2024-01-30T01:40:34;14.13;;;5.43;;
36597;SDS011;22607;49.550;11.940;2024-01-30T01:43:02;11.65;;;4.47;;
36597;SDS011;22607;49.550;11.940;2024-01-30T01:45:31;12.15;;;5.88;;
36597;SDS011;22607;49.550;11.940;2024-01-30T01:47:58;14.48;;;6.30;;
36597;SDS011;22607;49.550;11.940;2024-01-30T01:50:26;11.43;;;5.10;;
36597;SDS011;22607;49.550;11.940;2024-01-30T01:52:53;12.98;;;5.10;;
36597;SDS011;22607;49.550;11.940;2024-01-30T01:55:21;13.30;;;4.88;;
36597;SDS011;22607;49.550;11.940;2024-01-30T02:00:19;12.25;;;5.20;;
36597;SDS011;22607;49.550;11.940;2024-01-30T02:02:46;11.07;;;5.07;;
36597;SDS011;22607;49.550;11.940;2024-01-30T02:05:14;14.80;;;5.55;;
36597;SDS011;22607;49.550;11.940;2024-01-30T02:07:42;15.27;;;5.57;;
36597;SDS011;22607;49.550;11.940;2024-01-30T02:10:10;11.73;;;4.78;;
36597;SDS011;22607;49.550;11.940;2024-01-30T02:12:37;14.27;;;5.65;;
36597;SDS011;22607;49.550;11.940;2024-01-30T02:15:03;11.95;;;4.72;;
36597;SDS011;22607;49.550;11.940;2024-01-30T02:17:31;13.57;;;5.82;;
36597;SDS011;22607;49.550;11.940;2024-01-30T02:19:58;11.73;;;4.53;;
36597;SDS011;22607;49.550;11.940;2024-01-30T02:22:24;13.65;;;5.60;;
36597;SDS011;22607;49.550;11.940;2024-01-30T02:24:51;13.73;;;5.93;;
36597;SDS011;22607;49.550;11.940;2024-01-30T02:27:18;14.70;;;6.10;;
36597;SDS011;22607;49.550;11.940;2024-01-30T02:29:44;11.77;;;4.93;;
36597;SDS011;22607;49.550;11.940;2024-01-30T02:32:11;12.13;;;5.55;;
36597;SDS011;22607;49.550;11.940;2024-01-30T02:34:37;13.88;;;5.47;;
36597;SDS011;22607;49.550;11.940;2024-01-30T02:37:04;13.98;;;6.32;;
36597;SDS011;22607;49.550;11.940;2024-01-30T02:39:31;16.65;;;6.05;;
36597;SDS011;22607;49.550;11.940;2024-01-30T02:41:57;14.15;;;6.20;;
36597;SDS011;22607;49.550;11.940;2024-01-30T02:44:24;13.18;;;5.05;;
36597;SDS011;22607;49.550;11.940;2024-01-30T02:46:51;15.90;;;5.40;;
36597;SDS011;22607;49.550;11.940;2024-01-30T02:49:17;12.88;;;5.47;;
36597;SDS011;22607;49.550;11.940;2024-01-30T02:51:44;14.05;;;5.55;;
36597;SDS011;22607;49.550;11.940;2024-01-30T02:54:10;14.63;;;5.93;;
36597;SDS011;22607;49.550;11.940;2024-01-30T02:56:39;14.27;;;5.85;;
36597;SDS011;22607;49.550;11.940;2024-01-30T02:59:06;17.58;;;7.10;;
36597;SDS011;22607;49.550;11.940;2024-01-30T03:01:32;12.10;;;5.28;;
36597;SDS011;22607;49.550;11.940;2024-01-30T03:03:59;16.80;;;6.22;;
36597;SDS011;22607;49.550;11.940;2024-01-30T03:06:26;13.65;;;5.50;;
36597;SDS011;22607;49.550;11.940;2024-01-30T03:08:52;13.15;;;6.03;;
36597;SDS011;22607;49.550;11.940;2024-01-30T03:11:19;11.18;;;5.18;;
36597;SDS011;22607;49.550;11.940;2024-01-30T03:13:45;16.75;;;6.30;;
36597;SDS011;22607;49.550;11.940;2024-01-30T03:16:12;13.18;;;5.63;;
36597;SDS011;22607;49.550;11.940;2024-01-30T03:18:38;13.52;;;5.53;;
36597;SDS011;22607;49.550;11.940;2024-01-30T03:21:05;12.20;;;4.97;;
36597;SDS011;22607;49.550;11.940;2024-01-30T03:23:32;15.02;;;6.00;;
36597;SDS011;22607;49.550;11.940;2024-01-30T03:25:58;12.98;;;5.50;;
36597;SDS011;22607;49.550;11.940;2024-01-30T03:28:25;12.40;;;5.40;;
36597;SDS011;22607;49.550;11.940;2024-01-30T03:30:51;14.65;;;5.97;;
36597;SDS011;22607;49.550;11.940;2024-01-30T03:33:18;15.77;;;5.80;;
36597;SDS011;22607;49.550;11.940;2024-01-30T03:35:45;13.73;;;5.22;;
36597;SDS011;22607;49.550;11.940;2024-01-30T03:38:11;13.40;;;6.30;;
36597;SDS011;22607;49.550;11.940;2024-01-30T03:40:38;12.93;;;5.82;;
36597;SDS011;22607;49.550;11.940;2024-01-30T03:43:04;12.55;;;5.38;;
36597;SDS011;22607;49.550;11.940;2024-01-30T03:45:32;13.18;;;5.32;;
36597;SDS011;22607;49.550;11.940;2024-01-30T03:47:58;14.02;;;5.57;;
36597;SDS011;22607;49.550;11.940;2024-01-30T03:50:25;15.32;;;5.97;;
36597;SDS011;22607;49.550;11.940;2024-01-30T03:52:51;15.43;;;6.63;;
36597;SDS011;22607;49.550;11.940;2024-01-30T03:55:18;13.93;;;5.85;;
36597;SDS011;22607;49.550;11.940;2024-01-30T03:57:45;14.43;;;6.50;;
36597;SDS011;22607;49.550;11.940;2024-01-30T04:00:14;15.80;;;6.70;;
36597;SDS011;22607;49.550;11.940;2024-01-30T04:02:40;15.32;;;6.00;;
36597;SDS011;22607;49.550;11.940;2024-01-30T04:05:08;14.23;;;6.05;;
36597;SDS011;22607;49.550;11.940;2024-01-30T04:07:35;12.02;;;5.47;;
36597;SDS011;22607;49.550;11.940;2024-01-30T04:10:01;15.07;;;6.90;;
36597;SDS011;22607;49.550;11.940;2024-01-30T04:12:31;14.40;;;6.93;;
36597;SDS011;22607;49.550;11.940;2024-01-30T04:14:58;15.27;;;6.53;;
36597;SDS011;22607;49.550;11.940;2024-01-30T04:17:25;16.90;;;7.15;;
36597;SDS011;22607;49.550;11.940;2024-01-30T04:19:51;13.95;;;6.78;;
36597;SDS011;22607;49.550;11.940;2024-01-30T04:22:18;14.50;;;6.07;;
36597;SDS011;22607;49.550;11.940;2024-01-30T04:24:45;12.82;;;5.78;;
36597;SDS011;22607;49.550;11.940;2024-01-30T04:27:11;14.25;;;6.47;;
36597;SDS011;22607;49.550;11.940;2024-01-30T04:29:38;14.48;;;6.50;;
36597;SDS011;22607;49.550;11.940;2024-01-30T04:32:04;16.23;;;7.20;;
36597;SDS011;22607;49.550;11.940;2024-01-30T04:34:31;13.13;;;5.78;;
36597;SDS011;22607;49.550;11.940;2024-01-30T04:36:58;16.02;;;7.10;;
36597;SDS011;22607;49.550;11.940;2024-01-30T04:39:25;13.95;;;6.53;;
36597;SDS011;22607;49.550;11.940;2024-01-30T04:41:51;17.00;;;7.22;;
36597;SDS011;22607;49.550;11.940;2024-01-30T04:44:18;16.17;;;6.70;;
36597;SDS011;22607;49.550;11.940;2024-01-30T04:46:45;14.18;;;6.47;;
36597;SDS011;22607;49.550;11.940;2024-01-30T04:49:12;15.40;;;6.95;;
36597;SDS011;22607;49.550;11.940;2024-01-30T04:51:38;13.90;;;6.75;;
36597;SDS011;22607;49.550;11.940;2024-01-30T04:54:06;13.68;;;6.25;;
36597;SDS011;22607;49.550;11.940;2024-01-30T04:56:32;12.90;;;6.45;;
36597;SDS011;22607;49.550;11.940;2024-01-30T04:59:01;13.18;;;6.10;;
36597;SDS011;22607;49.550;11.940;2024-01-30T05:01:29;14.82;;;7.03;;
36597;SDS011;22607;49.550;11.940;2024-01-30T05:03:56;14.02;;;6.60;;
36597;SDS011;22607;49.550;11.940;2024-01-30T05:06:23;15.18;;;6.88;;
36597;SDS011;22607;49.550;11.940;2024-01-30T05:08:53;17.52;;;7.30;;
36597;SDS011;22607;49.550;11.940;2024-01-30T05:11:20;16.95;;;7.22;;
36597;SDS011;22607;49.550;11.940;2024-01-30T05:13:46;16.15;;;6.70;;
36597;SDS011;22607;49.550;11.940;2024-01-30T05:16:13;15.45;;;6.43;;
36597;SDS011;22607;49.550;11.940;2024-01-30T05:18:40;14.35;;;6.22;;
36597;SDS011;22607;49.550;11.940;2024-01-30T05:21:06;17.50;;;6.53;;
36597;SDS011;22607;49.550;11.940;2024-01-30T05:23:33;15.73;;;6.15;;
36597;SDS011;22607;49.550;11.940;2024-01-30T05:25:59;14.80;;;5.85;;
36597;SDS011;22607;49.550;11.940;2024-01-30T05:28:27;14.43;;;6.07;;
36597;SDS011;22607;49.550;11.940;2024-01-30T05:30:55;14.18;;;5.78;;
36597;SDS011;22607;49.550;11.940;2024-01-30T05:33:22;15.75;;;6.13;;
36597;SDS011;22607;49.550;11.940;2024-01-30T05:35:49;13.38;;;6.20;;
36597;SDS011;22607;49.550;11.940;2024-01-30T05:38:16;13.00;;;5.47;;
36597;SDS011;22607;49.550;11.940;2024-01-30T05:40:42;13.68;;;5.97;;
36597;SDS011;22607;49.550;11.940;2024-01-30T05:43:09;12.90;;;5.40;;
36597;SDS011;22607;49.550;11.940;2024-01-30T05:45:36;14.07;;;5.82;;
36597;SDS011;22607;49.550;11.940;2024-01-30T05:48:03;13.35;;;5.75;;
36597;SDS011;22607;49.550;11.940;2024-01-30T05:50:30;14.77;;;6.45;;
36597;SDS011;22607;49.550;11.940;2024-01-30T05:52:57;12.85;;;5.85;;
36597;SDS011;22607;49.550;11.940;2024-01-30T05:55:26;14.57;;;5.72;;
36597;SDS011;22607;49.550;11.940;2024-01-30T05:57:52;14.77;;;5.75;;
36597;SDS011;22607;49.550;11.940;2024-01-30T06:00:19;14.25;;;5.93;;
36597;SDS011;22607;49.550;11.940;2024-01-30T06:02:46;13.60;;;6.07;;
36597;SDS011;22607;49.550;11.940;2024-01-30T06:05:12;15.25;;;6.13;;
36597;SDS011;22607;49.550;11.940;2024-01-30T06:07:39;14.93;;;7.25;;
36597;SDS011;22607;49.550;11.940;2024-01-30T06:10:06;14.90;;;6.22;;
36597;SDS011;22607;49.550;11.940;2024-01-30T06:12:35;13.90;;;6.43;;
36597;SDS011;22607;49.550;11.940;2024-01-30T06:15:02;15.02;;;6.40;;
36597;SDS011;22607;49.550;11.940;2024-01-30T06:17:28;15.00;;;6.47;;
36597;SDS011;22607;49.550;11.940;2024-01-30T06:19:55;14.73;;;5.93;;
36597;SDS011;22607;49.550;11.940;2024-01-30T06:24:54;16.70;;;7.28;;
36597;SDS011;22607;49.550;11.940;2024-01-30T06:27:20;15.50;;;6.82;;
36597;SDS011;22607;49.550;11.940;2024-01-30T06:29:47;16.20;;;6.90;;
36597;SDS011;22607;49.550;11.940;2024-01-30T06:32:13;13.75;;;5.97;;
36597;SDS011;22607;49.550;11.940;2024-01-30T06:34:40;16.10;;;6.50;;
36597;SDS011;22607;49.550;11.940;2024-01-30T06:37:08;15.27;;;7.07;;
36597;SDS011;22607;49.550;11.940;2024-01-30T06:39:34;13.70;;;6.38;;
36597;SDS011;22607;49.550;11.940;2024-01-30T06:42:01;13.40;;;6.20;;
36597;SDS011;22607;49.550;11.940;2024-01-30T06:44:27;14.20;;;6.53;;
36597;SDS011;22607;49.550;11.940;2024-01-30T06:46:58;15.95;;;7.18;;
36597;SDS011;22607;49.550;11.940;2024-01-30T06:49:25;16.95;;;6.60;;
36597;SDS011;22607;49.550;11.940;2024-01-30T06:51:51;16.45;;;7.03;;
36597;SDS011;22607;49.550;11.940;2024-01-30T06:54:18;15.85;;;7.25;;
36597;SDS011;22607;49.550;11.940;2024-01-30T06:56:45;17.95;;;7.88;;
36597;SDS011;22607;49.550;11.940;2024-01-30T06:59:14;15.65;;;6.30;;
36597;SDS011;22607;49.550;11.940;2024-01-30T07:01:40;14.88;;;6.80;;
36597;SDS011;22607;49.550;11.940;2024-01-30T07:04:07;16.75;;;6.93;;
36597;SDS011;22607;49.550;11.940;2024-01-30T07:06:33;14.90;;;6.00;;
36597;SDS011;22607;49.550;11.940;2024-01-30T07:09:00;14.50;;;6.30;;
36597;SDS011;22607;49.550;11.940;2024-01-30T07:11:26;14.52;;;6.35;;
36597;SDS011;22607;49.550;11.940;2024-01-30T07:13:54;15.48;;;6.55;;
36597;SDS011;22607;49.550;11.940;2024-01-30T07:16:21;14.05;;;6.13;;
36597;SDS011;22607;49.550;11.940;2024-01-30T07:18:48;12.65;;;5.55;;
36597;SDS011;22607;49.550;11.940;2024-01-30T07:21:16;15.35;;;6.10;;
36597;SDS011;22607;49.550;11.940;2024-01-30T07:23:42;15.18;;;6.15;;
36597;SDS011;22607;49.550;11.940;2024-01-30T07:26:11;14.23;;;6.30;;
36597;SDS011;22607;49.550;11.940;2024-01-30T07:28:38;14.88;;;6.32;;
36597;SDS011;22607;49.550;11.940;2024-01-30T07:31:10;14.05;;;6.40;;
36597;SDS011;22607;49.550;11.940;2024-01-30T07:33:37;13.80;;;6.25;;
36597;SDS011;22607;49.550;11.940;2024-01-30T07:36:03;16.10;;;6.63;;
36597;SDS011;22607;49.550;11.940;2024-01-30T07:38:33;16.10;;;7.25;;
36597;SDS011;22607;49.550;11.940;2024-01-30T07:40:59;13.57;;;6.43;;
36597;SDS011;22607;49.550;11.940;2024-01-30T07:43:26;15.90;;;6.00;;
36597;SDS011;22607;49.550;11.940;2024-01-30T07:45:53;18.88;;;7.82;;
36597;SDS011;22607;49.550;11.940;2024-01-30T07:48:19;13.05;;;6.13;;
36597;SDS011;22607;49.550;11.940;2024-01-30T07:50:47;14.27;;;6.55;;
36597;SDS011;22607;49.550;11.940;2024-01-30T07:53:13;17.00;;;7.57;;
36597;SDS011;22607;49.550;11.940;2024-01-30T07:55:40;15.63;;;7.82;;
36597;SDS011;22607;49.550;11.940;2024-01-30T07:58:07;16.38;;;6.40;;
36597;SDS011;22607;49.550;11.940;2024-01-30T08:00:34;14.63;;;7.03;;
36597;SDS011;22607;49.550;11.940;2024-01-30T08:03:03;17.02;;;7.50;;
36597;SDS011;22607;49.550;11.940;2024-01-30T08:05:30;14.85;;;7.18;;
36597;SDS011;22607;49.550;11.940;2024-01-30T08:07:57;17.63;;;8.18;;
36597;SDS011;22607;49.550;11.940;2024-01-30T08:10:23;14.80;;;7.68;;
36597;SDS011;22607;49.550;11.940;2024-01-30T08:12:51;22.02;;;11.40;;
36597;SDS011;22607;49.550;11.940;2024-01-30T08:15:18;20.23;;;12.35;;
36597;SDS011;22607;49.550;11.940;2024-01-30T08:17:44;24.63;;;12.40;;
36597;SDS011;22607;49.550;11.940;2024-01-30T08:20:11;20.30;;;11.90;;
36597;SDS011;22607;49.550;11.940;2024-01-30T08:22:39;23.20;;;12.77;;
36597;SDS011;22607;49.550;11.940;2024-01-30T08:25:17;27.58;;;14.52;;
36597;SDS011;22607;49.550;11.940;2024-01-30T08:27:43;31.30;;;17.23;;
36597;SDS011;22607;49.550;11.940;2024-01-30T08:30:18;31.00;;;14.32;;
36597;SDS011;22607;49.550;11.940;2024-01-30T08:32:45;42.25;;;20.33;;
36597;SDS011;22607;49.550;11.940;2024-01-30T08:35:12;32.33;;;17.05;;
36597;SDS011;22607;49.550;11.940;2024-01-30T08:37:41;27.95;;;14.68;;
36597;SDS011;22607;49.550;11.940;2024-01-30T08:40:08;31.83;;;16.42;;
36597;SDS011;22607;49.550;11.940;2024-01-30T08:42:35;26.27;;;12.15;;
36597;SDS011;22607;49.550;11.940;2024-01-30T08:45:03;21.10;;;11.43;;
36597;SDS011;22607;49.550;11.940;2024-01-30T08:47:31;22.63;;;12.25;;
36597;SDS011;22607;49.550;11.940;2024-01-30T08:49:58;23.52;;;12.63;;
36597;SDS011;22607;49.550;11.940;2024-01-30T08:52:26;23.90;;;11.40;;
36597;SDS011;22607;49.550;11.940;2024-01-30T08:54:52;22.92;;;11.45;;
36597;SDS011;22607;49.550;11.940;2024-01-30T08:57:20;20.98;;;11.13;;
36597;SDS011;22607;49.550;11.940;2024-01-30T08:59:47;19.60;;;9.35;;
36597;SDS011;22607;49.550;11.940;2024-01-30T09:02:14;19.85;;;10.38;;
36597;SDS011;22607;49.550;11.940;2024-01-30T09:04:42;19.60;;;9.38;;
36597;SDS011;22607;49.550;11.940;2024-01-30T09:07:09;19.83;;;10.27;;
36597;SDS011;22607;49.550;11.940;2024-01-30T09:09:38;24.13;;;12.13;;
36597;SDS011;22607;49.550;11.940;2024-01-30T09:12:07;21.33;;;10.38;;
36597;SDS011;22607;49.550;11.940;2024-01-30T09:14:37;22.70;;;10.20;;
36597;SDS011;22607;49.550;11.940;2024-01-30T09:17:05;19.25;;;9.52;;
36597;SDS011;22607;49.550;11.940;2024-01-30T09:19:32;21.42;;;11.30;;
36597;SDS011;22607;49.550;11.940;2024-01-30T09:21:59;21.85;;;10.98;;
36597;SDS011;22607;49.550;11.940;2024-01-30T09:24:37;20.58;;;11.23;;
36597;SDS011;22607;49.550;11.940;2024-01-30T09:27:04;25.95;;;12.98;;
36597;SDS011;22607;49.550;11.940;2024-01-30T09:29:30;23.27;;;12.68;;
36597;SDS011;22607;49.550;11.940;2024-01-30T09:31:57;23.15;;;12.52;;
36597;SDS011;22607;49.550;11.940;2024-01-30T09:34:24;21.05;;;11.75;;
36597;SDS011;22607;49.550;11.940;2024-01-30T09:39:22;21.63;;;12.10;;
36597;SDS011;22607;49.550;11.940;2024-01-30T09:41:49;25.20;;;11.95;;
36597;SDS011;22607;49.550;11.940;2024-01-30T09:44:22;23.17;;;12.65;;
36597;SDS011;22607;49.550;11.940;2024-01-30T09:46:50;22.45;;;12.68;;
36597;SDS011;22607;49.550;11.940;2024-01-30T09:49:17;24.50;;;12.95;;
36597;SDS011;22607;49.550;11.940;2024-01-30T09:51:47;26.40;;;13.85;;
36597;SDS011;22607;49.550;11.940;2024-01-30T09:54:14;24.95;;;14.18;;
36597;SDS011;22607;49.550;11.940;2024-01-30T09:56:42;25.65;;;14.43;;
36597;SDS011;22607;49.550;11.940;2024-01-30T09:59:08;23.95;;;13.88;;
36597;SDS011;22607;49.550;11.940;2024-01-30T10:01:35;22.42;;;13.10;;
36597;SDS011;22607;49.550;11.940;2024-01-30T10:04:03;21.90;;;12.82;;
36597;SDS011;22607;49.550;11.940;2024-01-30T10:06:31;27.27;;;14.95;;
36597;SDS011;22607;49.550;11.940;2024-01-30T10:08:57;19.50;;;11.05;;
36597;SDS011;22607;49.550;11.940;2024-01-30T10:11:25;25.55;;;13.38;;
36597;SDS011;22607;49.550;11.940;2024-01-30T10:13:51;22.95;;;12.48;;
36597;SDS011;22607;49.550;11.940;2024-01-30T10:16:19;20.73;;;10.80;;
36597;SDS011;22607;49.550;11.940;2024-01-30T10:18:46;26.83;;;14.73;;
36597;SDS011;22607;49.550;11.940;2024-01-30T10:21:20;18.27;;;10.68;;
36597;SDS011;22607;49.550;11.940;2024-01-30T10:23:47;21.85;;;12.68;;
36597;SDS011;22607;49.550;11.940;2024-01-30T10:26:15;19.60;;;11.35;;
36597;SDS011;22607;49.550;11.940;2024-01-30T10:28:43;20.98;;;11.45;;
36597;SDS011;22607;49.550;11.940;2024-01-30T10:31:10;17.77;;;10.88;;
36597;SDS011;22607;49.550;11.940;2024-01-30T10:33:36;21.90;;;12.65;;
36597;SDS011;22607;49.550;11.940;2024-01-30T10:36:04;19.77;;;11.52;;
36597;SDS011;22607;49.550;11.940;2024-01-30T10:38:32;20.33;;;11.75;;
36597;SDS011;22607;49.550;11.940;2024-01-30T10:41:00;24.30;;;12.55;;
36597;SDS011;22607;49.550;11.940;2024-01-30T10:43:30;20.50;;;12.57;;
36597;SDS011;22607;49.550;11.940;2024-01-30T10:49:00;18.88;;;12.20;;
36597;SDS011;22607;49.550;11.940;2024-01-30T10:51:27;17.23;;;10.45;;
36597;SDS011;22607;49.550;11.940;2024-01-30T10:53:55;18.90;;;10.88;;
36597;SDS011;22607;49.550;11.940;2024-01-30T10:56:24;16.30;;;10.23;;
36597;SDS011;22607;49.550;11.940;2024-01-30T10:58:57;19.42;;;12.18;;
36597;SDS011;22607;49.550;11.940;2024-01-30T11:01:24;20.77;;;12.15;;
36597;SDS011;22607;49.550;11.940;2024-01-30T11:03:58;19.60;;;11.20;;
36597;SDS011;22607;49.550;11.940;2024-01-30T11:06:25;18.40;;;10.80;;
36597;SDS011;22607;49.550;11.940;2024-01-30T11:09:04;18.27;;;10.30;;
36597;SDS011;22607;49.550;11.940;2024-01-30T11:11:49;20.80;;;12.23;;
36597;SDS011;22607;49.550;11.940;2024-01-30T11:14:16;24.95;;;12.98;;
36597;SDS011;22607;49.550;11.940;2024-01-30T11:16:50;19.27;;;10.30;;
36597;SDS011;22607;49.550;11.940;2024-01-30T11:19:22;22.42;;;12.38;;
36597;SDS011;22607;49.550;11.940;2024-01-30T11:21:50;23.10;;;12.05;;
36597;SDS011;22607;49.550;11.940;2024-01-30T11:24:20;24.52;;;13.95;;
36597;SDS011;22607;49.550;11.940;2024-01-30T11:26:55;17.88;;;10.25;;
36597;SDS011;22607;49.550;11.940;2024-01-30T11:29:26;20.65;;;12.32;;
36597;SDS011;22607;49.550;11.940;2024-01-30T11:31:54;20.15;;;11.85;;
36597;SDS011;22607;49.550;11.940;2024-01-30T11:34:22;24.55;;;12.80;;
36597;SDS011;22607;49.550;11.940;2024-01-30T11:36:57;20.90;;;11.73;;
36597;SDS011;22607;49.550;11.940;2024-01-30T11:39:26;25.67;;;12.95;;
36597;SDS011;22607;49.550;11.940;2024-01-30T11:41:53;20.33;;;10.85;;
36597;SDS011;22607;49.550;11.940;2024-01-30T11:44:20;20.40;;;12.68;;
36597;SDS011;22607;49.550;11.940;2024-01-30T11:46:53;22.38;;;12.75;;
36597;SDS011;22607;49.550;11.940;2024-01-30T11:49:19;22.27;;;10.90;;
36597;SDS011;22607;49.550;11.940;2024-01-30T11:51:46;22.95;;;13.68;;
36597;SDS011;22607;49.550;11.940;2024-01-30T11:54:15;19.42;;;10.95;;
36597;SDS011;22607;49.550;11.940;2024-01-30T11:56:42;25.58;;;12.85;;
36597;SDS011;22607;49.550;11.940;2024-01-30T11:59:11;18.15;;;10.65;;
36597;SDS011;22607;49.550;11.940;2024-01-30T12:01:40;18.17;;;10.17;;
36597;SDS011;22607;49.550;11.940;2024-01-30T12:04:07;20.17;;;10.93;;
36597;SDS011;22607;49.550;11.940;2024-01-30T12:06:36;23.45;;;13.13;;
36597;SDS011;22607;49.550;11.940;2024-01-30T12:09:06;18.50;;;11.70;;
36597;SDS011;22607;49.550;11.940;2024-01-30T12:14:11;18.67;;;11.85;;
36597;SDS011;22607;49.550;11.940;2024-01-30T12:16:38;20.60;;;11.82;;
36597;SDS011;22607;49.550;11.940;2024-01-30T12:19:05;18.00;;;11.23;;
36597;SDS011;22607;49.550;11.940;2024-01-30T12:21:32;19.13;;;10.95;;
36597;SDS011;22607;49.550;11.940;2024-01-30T12:24:00;18.67;;;11.23;;
36597;SDS011;22607;49.550;11.940;2024-01-30T12:26:26;18.50;;;10.90;;
36597;SDS011;22607;49.550;11.940;2024-01-30T12:28:54;19.20;;;10.23;;
36597;SDS011;22607;49.550;11.940;2024-01-30T12:31:28;17.70;;;9.40;;
36597;SDS011;22607;49.550;11.940;2024-01-30T12:33:55;16.23;;;10.45;;
36597;SDS011;22607;49.550;11.940;2024-01-30T12:36:22;18.88;;;11.32;;
36597;SDS011;22607;49.550;11.940;2024-01-30T12:38:49;19.08;;;11.23;;
36597;SDS011;22607;49.550;11.940;2024-01-30T12:41:16;20.65;;;12.52;;
36597;SDS011;22607;49.550;11.940;2024-01-30T12:43:43;19.50;;;11.75;;
36597;SDS011;22607;49.550;11.940;2024-01-30T12:46:10;21.70;;;12.68;;
36597;SDS011;22607;49.550;11.940;2024-01-30T12:48:36;20.30;;;11.40;;
36597;SDS011;22607;49.550;11.940;2024-01-30T12:51:04;19.75;;;11.13;;
36597;SDS011;22607;49.550;11.940;2024-01-30T12:53:30;19.75;;;11.18;;
36597;SDS011;22607;49.550;11.940;2024-01-30T12:55:57;19.63;;;12.00;;
36597;SDS011;22607;49.550;11.940;2024-01-30T12:58:24;25.52;;;13.10;;
36597;SDS011;22607;49.550;11.940;2024-01-30T13:00:50;20.15;;;12.25;;
36597;SDS011;22607;49.550;11.940;2024-01-30T13:03:18;18.08;;;11.60;;
36597;SDS011;22607;49.550;11.940;2024-01-30T13:05:46;23.20;;;13.25;;
36597;SDS011;22607;49.550;11.940;2024-01-30T13:08:13;19.40;;;11.18;;
36597;SDS011;22607;49.550;11.940;2024-01-30T13:10:40;22.48;;;10.85;;
36597;SDS011;22607;49.550;11.940;2024-01-30T13:13:07;18.48;;;10.85;;
36597;SDS011;22607;49.550;11.940;2024-01-30T13:15:45;19.65;;;10.43;;
36597;SDS011;22607;49.550;11.940;2024-01-30T13:18:12;19.52;;;11.45;;
36597;SDS011;22607;49.550;11.940;2024-01-30T13:20:39;16.75;;;10.45;;
36597;SDS011;22607;49.550;11.940;2024-01-30T13:23:05;18.40;;;10.80;;
36597;SDS011;22607;49.550;11.940;2024-01-30T13:25:32;20.60;;;11.35;;
36597;SDS011;22607;49.550;11.940;2024-01-30T13:27:59;18.75;;;11.32;;
36597;SDS011;22607;49.550;11.940;2024-01-30T13:30:26;18.75;;;10.77;;
36597;SDS011;22607;49.550;11.940;2024-01-30T13:32:52;18.63;;;10.10;;
36597;SDS011;22607;49.550;11.940;2024-01-30T13:35:20;17.63;;;10.43;;
36597;SDS011;22607;49.550;11.940;2024-01-30T13:37:47;21.00;;;12.25;;
36597;SDS011;22607;49.550;11.940;2024-01-30T13:40:14;20.08;;;11.60;;
36597;SDS011;22607;49.550;11.940;2024-01-30T13:42:43;18.58;;;10.85;;
36597;SDS011;22607;49.550;11.940;2024-01-30T13:45:11;23.13;;;11.98;;
36597;SDS011;22607;49.550;11.940;2024-01-30T13:47:38;18.23;;;10.43;;
36597;SDS011;22607;49.550;11.940;2024-01-30T13:50:05;18.30;;;10.80;;
36597;SDS011;22607;49.550;11.940;2024-01-30T13:52:32;22.83;;;12.43;;
36597;SDS011;22607;49.550;11.940;2024-01-30T13:55:09;19.00;;;10.10;;
36597;SDS011;22607;49.550;11.940;2024-01-30T13:57:36;21.45;;;12.23;;
36597;SDS011;22607;49.550;11.940;2024-01-30T14:00:03;22.92;;;12.38;;
36597;SDS011;22607;49.550;11.940;2024-01-30T14:02:33;18.05;;;10.73;;
36597;SDS011;22607;49.550;11.940;2024-01-30T14:05:00;20.08;;;9.73;;
36597;SDS011;22607;49.550;11.940;2024-01-30T14:07:27;17.70;;;11.02;;
36597;SDS011;22607;49.550;11.940;2024-01-30T14:09:54;18.52;;;10.55;;
36597;SDS011;22607;49.550;11.940;2024-01-30T14:12:20;20.30;;;11.77;;
36597;SDS011;22607;49.550;11.940;2024-01-30T14:14:47;19.63;;;10.35;;
36597;SDS011;22607;49.550;11.940;2024-01-30T14:17:16;20.35;;;10.75;;
36597;SDS011;22607;49.550;11.940;2024-01-30T14:19:42;20.40;;;10.55;;
36597;SDS011;22607;49.550;11.940;2024-01-30T14:22:10;18.40;;;10.48;;
36597;SDS011;22607;49.550;11.940;2024-01-30T14:24:36;20.05;;;11.35;;
36597;SDS011;22607;49.550;11.940;2024-01-30T14:27:03;17.60;;;9.70;;
36597;SDS011;22607;49.550;11.940;2024-01-30T14:29:30;18.25;;;9.98;;
36597;SDS011;22607;49.550;11.940;2024-01-30T14:31:57;17.13;;;9.65;;